createdAt,value
2022-10-13T00:01:13.481Z,14.23
2022-10-13T00:03:42.211Z,12.30
2022-10-13T00:06:11.206Z,12.07
2022-10-13T00:08:38.378Z,11.00
2022-10-13T00:11:24.081Z,11.47
2022-10-13T00:14:00.659Z,10.67
2022-10-13T00:16:30.674Z,11.83
2022-10-13T00:18:57.940Z,17.03
2022-10-13T00:21:27.103Z,18.57
2022-10-13T00:23:55.672Z,18.47
2022-10-13T00:26:25.005Z,15.50
2022-10-13T00:28:53.103Z,15.77
2022-10-13T00:31:23.737Z,13.67
2022-10-13T00:33:52.919Z,12.00
2022-10-13T00:36:23.296Z,9.83
2022-10-13T00:38:51.027Z,9.53
2022-10-13T00:41:19.157Z,8.80
2022-10-13T00:44:00.032Z,7.77
2022-10-13T00:46:31.159Z,7.07
2022-10-13T00:49:04.023Z,6.17
2022-10-13T00:51:38.154Z,5.60
2022-10-13T00:54:07.298Z,5.33
2022-10-13T00:56:36.229Z,6.80
2022-10-13T00:59:06.296Z,6.67
2022-10-13T01:01:33.160Z,5.80
2022-10-13T01:04:00.247Z,5.43
2022-10-13T01:06:28.124Z,5.03
2022-10-13T01:08:55.978Z,4.97
2022-10-13T01:11:31.631Z,5.20
2022-10-13T01:14:17.556Z,4.00
2022-10-13T01:17:08.412Z,4.17
2022-10-13T01:20:01.084Z,4.90
2022-10-13T01:22:37.599Z,5.03
2022-10-13T01:25:16.216Z,5.10
2022-10-13T01:28:02.060Z,5.87
2022-10-13T01:30:35.132Z,5.53
2022-10-13T01:33:40.206Z,5.47
2022-10-13T01:36:15.864Z,5.23
2022-10-13T01:38:54.031Z,4.83
2022-10-13T01:41:42.084Z,5.27
2022-10-13T01:44:16.357Z,5.87
2022-10-13T01:46:54.648Z,5.93
2022-10-13T01:49:27.080Z,6.00
2022-10-13T01:51:56.291Z,5.93
2022-10-13T01:54:23.546Z,6.20
2022-10-13T01:56:57.124Z,5.53
2022-10-13T01:59:27.331Z,6.03
2022-10-13T02:02:19.113Z,5.67
2022-10-13T02:04:56.142Z,5.47
2022-10-13T02:07:43.209Z,6.30
2022-10-13T02:10:33.020Z,6.67
2022-10-13T02:13:06.071Z,7.23
2022-10-13T02:15:42.496Z,7.27
2022-10-13T02:18:14.002Z,6.40
2022-10-13T02:20:42.342Z,6.07
2022-10-13T02:23:12.639Z,6.87
2022-10-13T02:25:47.477Z,6.10
2022-10-13T02:28:16.087Z,7.00
2022-10-13T02:30:45.432Z,6.50
2022-10-13T02:33:13.588Z,6.73
2022-10-13T02:35:40.666Z,6.20
2022-10-13T02:38:07.724Z,6.60
2022-10-13T02:40:35.196Z,8.37
2022-10-13T02:43:04.399Z,10.37
2022-10-13T02:45:31.300Z,10.63
2022-10-13T02:47:58.280Z,9.70
2022-10-13T02:50:25.309Z,8.57
2022-10-13T02:52:54.350Z,7.80
2022-10-13T02:55:22.159Z,7.33
2022-10-13T02:57:56.321Z,6.50
2022-10-13T03:00:23.635Z,8.47
2022-10-13T03:02:51.571Z,10.23
2022-10-13T03:05:19.902Z,11.00
2022-10-13T03:07:46.738Z,11.80
2022-10-13T03:10:14.605Z,13.73
2022-10-13T03:12:41.475Z,16.03
2022-10-13T03:15:09.225Z,15.87
2022-10-13T03:17:36.025Z,17.57
2022-10-13T03:20:03.303Z,15.67
2022-10-13T03:22:32.445Z,17.67
2022-10-13T03:24:59.342Z,17.97
2022-10-13T03:27:26.181Z,18.77
2022-10-13T03:29:53.026Z,18.30
2022-10-13T03:32:19.986Z,20.40
2022-10-13T03:34:47.430Z,22.13
2022-10-13T03:37:15.380Z,21.33
2022-10-13T03:39:43.308Z,24.67
2022-10-13T03:42:10.977Z,23.77
2022-10-13T03:44:39.257Z,23.43
2022-10-13T03:47:06.954Z,23.97
2022-10-13T03:49:33.827Z,24.27
2022-10-13T03:52:00.643Z,24.33
2022-10-13T03:54:28.489Z,23.33
2022-10-13T03:56:57.394Z,23.10
2022-10-13T03:59:24.311Z,23.63
2022-10-13T04:01:52.287Z,22.63
2022-10-13T04:04:20.135Z,20.87
2022-10-13T04:06:48.819Z,21.50
2022-10-13T04:09:15.640Z,20.33
2022-10-13T04:11:42.533Z,20.33
2022-10-13T04:14:09.436Z,20.53
2022-10-13T04:16:36.278Z,21.77
2022-10-13T04:19:05.693Z,22.53
2022-10-13T04:21:33.964Z,19.67
2022-10-13T04:24:02.902Z,23.33
2022-10-13T04:26:32.477Z,24.27
2022-10-13T04:29:08.266Z,23.10
2022-10-13T04:31:35.505Z,20.47
2022-10-13T04:34:02.359Z,21.97
2022-10-13T04:36:30.510Z,22.30
2022-10-13T04:38:58.764Z,22.93
2022-10-13T04:41:26.818Z,23.47
2022-10-13T04:43:54.794Z,23.97
2022-10-13T04:46:25.588Z,22.87
2022-10-13T04:48:57.252Z,23.43
2022-10-13T04:51:29.435Z,21.07
2022-10-13T04:53:58.130Z,21.90
2022-10-13T04:56:25.381Z,23.33
2022-10-13T04:58:52.295Z,25.90
2022-10-13T05:01:22.509Z,21.37
2022-10-13T05:03:54.435Z,21.40
2022-10-13T05:06:24.113Z,22.30
2022-10-13T05:08:57.361Z,22.40
2022-10-13T05:11:26.566Z,19.70
2022-10-13T05:13:53.633Z,22.20
2022-10-13T05:16:22.312Z,19.33
2022-10-13T05:18:51.722Z,22.67
2022-10-13T05:21:25.188Z,21.80
2022-10-13T05:23:54.420Z,22.13
2022-10-13T05:26:28.021Z,23.50
2022-10-13T05:29:02.198Z,24.00
2022-10-13T05:31:34.473Z,24.33
2022-10-13T05:34:01.543Z,23.40
2022-10-13T05:36:34.731Z,24.40
2022-10-13T05:39:04.421Z,23.87
2022-10-13T05:41:31.467Z,25.60
2022-10-13T05:44:09.229Z,22.10
2022-10-13T05:46:44.385Z,23.47
2022-10-13T05:49:13.314Z,25.23
2022-10-13T05:51:44.163Z,23.63
2022-10-13T05:54:31.057Z,22.30
2022-10-13T05:57:04.018Z,22.40
2022-10-13T05:59:35.399Z,22.97
2022-10-13T06:02:04.307Z,20.90
2022-10-13T06:04:37.521Z,20.43
2022-10-13T06:07:04.762Z,23.17
2022-10-13T06:09:35.136Z,26.60
2022-10-13T06:12:02.155Z,24.50
2022-10-13T06:14:29.124Z,23.43
2022-10-13T06:16:56.377Z,20.37
2022-10-13T06:19:23.384Z,21.77
2022-10-13T06:21:50.552Z,20.97
2022-10-13T06:24:17.931Z,18.73
2022-10-13T06:26:44.867Z,17.97
2022-10-13T06:29:12.138Z,18.03
2022-10-13T06:31:39.196Z,17.33
2022-10-13T06:34:07.756Z,19.03
2022-10-13T06:36:36.491Z,17.60
2022-10-13T06:39:04.564Z,16.23
2022-10-13T06:41:31.500Z,16.63
2022-10-13T06:43:58.382Z,15.90
2022-10-13T06:46:28.079Z,16.37
2022-10-13T06:48:55.064Z,17.27
2022-10-13T06:51:23.373Z,15.37
2022-10-13T06:53:51.338Z,14.47
2022-10-13T06:56:24.134Z,15.17
2022-10-13T06:58:51.042Z,15.43
2022-10-13T07:01:19.081Z,14.07
2022-10-13T07:03:51.827Z,13.90
2022-10-13T07:06:21.303Z,13.80
2022-10-13T07:08:51.065Z,12.63
2022-10-13T07:11:19.650Z,13.23
2022-10-13T07:13:51.397Z,13.10
2022-10-13T07:16:20.579Z,14.30
2022-10-13T07:18:48.543Z,15.90
2022-10-13T07:21:15.508Z,13.73
2022-10-13T07:23:42.880Z,15.70
2022-10-13T07:26:16.072Z,12.80
2022-10-13T07:28:44.475Z,12.83
2022-10-13T07:31:14.851Z,13.43
2022-10-13T07:33:44.242Z,13.03
2022-10-13T07:36:12.333Z,12.87
2022-10-13T07:38:39.642Z,12.47
2022-10-13T07:41:08.326Z,13.73
2022-10-13T07:43:35.419Z,11.47
2022-10-13T07:46:06.151Z,12.03
2022-10-13T07:48:34.411Z,10.17
2022-10-13T07:51:08.546Z,10.67
2022-10-13T07:53:36.803Z,9.93
2022-10-13T07:56:05.830Z,10.97
2022-10-13T07:58:33.561Z,10.50
2022-10-13T08:01:01.892Z,9.90
2022-10-13T08:03:29.671Z,8.70
2022-10-13T08:05:59.572Z,9.07
2022-10-13T08:08:27.423Z,8.03
2022-10-13T08:10:55.059Z,8.50
2022-10-13T08:13:23.745Z,8.50
2022-10-13T08:15:50.655Z,8.00
2022-10-13T08:18:17.701Z,8.33
2022-10-13T08:20:46.356Z,8.30
2022-10-13T08:23:14.301Z,7.60
2022-10-13T08:25:48.738Z,7.50
2022-10-13T08:28:20.444Z,9.30
2022-10-13T08:30:48.762Z,10.97
2022-10-13T08:33:15.722Z,7.80
2022-10-13T08:35:42.860Z,7.87
2022-10-13T08:38:09.805Z,18.17
2022-10-13T08:40:38.365Z,20.17
2022-10-13T08:43:07.506Z,12.23
2022-10-13T08:45:41.437Z,15.37
2022-10-13T08:48:15.305Z,37.53
2022-10-13T08:50:46.797Z,36.57
2022-10-13T08:53:31.654Z,22.07
2022-10-13T08:56:05.182Z,13.90
2022-10-13T08:58:34.918Z,7.80
2022-10-13T09:01:10.980Z,8.93
2022-10-13T09:04:03.963Z,13.63
2022-10-13T09:06:37.973Z,10.03
2022-10-13T09:09:15.622Z,6.90
2022-10-13T09:11:46.569Z,6.77
2022-10-13T09:14:19.962Z,8.33
2022-10-13T09:16:50.315Z,6.80
2022-10-13T09:19:21.008Z,7.50
2022-10-13T09:21:49.561Z,10.17
2022-10-13T09:24:18.734Z,9.30
2022-10-13T09:26:48.096Z,6.50
2022-10-13T09:29:26.051Z,6.33
2022-10-13T09:32:13.617Z,6.20
2022-10-13T09:34:40.583Z,6.57
2022-10-13T09:37:19.034Z,6.37
2022-10-13T09:39:46.302Z,7.27
2022-10-13T09:42:30.145Z,6.60
2022-10-13T09:45:20.992Z,6.00
2022-10-13T09:47:57.691Z,6.73
2022-10-13T09:50:29.909Z,7.90
2022-10-13T09:53:28.733Z,6.67
2022-10-13T09:56:17.095Z,7.10
2022-10-13T09:59:28.689Z,7.00
2022-10-13T10:01:57.790Z,6.67
2022-10-13T10:04:31.746Z,6.97
2022-10-13T10:07:00.955Z,6.80
2022-10-13T10:09:39.420Z,7.30
2022-10-13T10:12:15.616Z,8.40
2022-10-13T10:14:42.668Z,6.63
2022-10-13T10:17:09.632Z,6.93
2022-10-13T10:19:56.265Z,8.23
2022-10-13T10:22:41.873Z,6.17
2022-10-13T10:25:48.469Z,6.13
2022-10-13T10:28:34.103Z,6.47
2022-10-13T10:31:13.627Z,6.13
2022-10-13T10:34:00.637Z,6.27
2022-10-13T10:36:59.421Z,5.83
2022-10-13T10:39:44.437Z,5.93
2022-10-13T10:42:52.185Z,6.67
2022-10-13T10:45:26.610Z,5.87
2022-10-13T10:48:01.543Z,4.87
2022-10-13T10:50:31.441Z,5.87
2022-10-13T10:53:13.156Z,5.17
2022-10-13T10:56:03.167Z,6.93
2022-10-13T10:59:00.897Z,6.37
2022-10-13T11:01:52.226Z,5.67
2022-10-13T11:04:48.480Z,10.00
2022-10-13T11:07:24.641Z,6.40
2022-10-13T11:09:51.540Z,6.10
2022-10-13T11:12:25.268Z,6.40
2022-10-13T11:15:09.920Z,7.47
2022-10-13T11:17:38.540Z,8.20
2022-10-13T11:20:21.424Z,7.30
2022-10-13T11:23:03.735Z,6.57
2022-10-13T11:25:42.838Z,6.80
2022-10-13T11:28:42.594Z,7.03
2022-10-13T11:31:15.534Z,6.50
2022-10-13T11:33:45.795Z,7.60
2022-10-13T11:36:49.855Z,6.47
2022-10-13T11:39:27.599Z,6.90
2022-10-13T11:42:36.132Z,6.17
2022-10-13T11:45:11.648Z,7.00
2022-10-13T11:48:25.693Z,7.23
2022-10-13T11:51:12.630Z,7.03
2022-10-13T11:54:10.867Z,5.87
2022-10-13T11:56:55.309Z,6.67
2022-10-13T11:59:37.604Z,6.97
2022-10-13T12:02:10.295Z,6.70
2022-10-13T12:04:41.548Z,6.23
2022-10-13T12:07:15.814Z,6.80
2022-10-13T12:09:57.232Z,6.53
2022-10-13T12:12:25.434Z,7.23
2022-10-13T12:14:55.563Z,6.53
2022-10-13T12:17:26.597Z,7.60
2022-10-13T12:20:15.338Z,6.33
2022-10-13T12:22:51.422Z,8.93
2022-10-13T12:25:21.277Z,10.03
2022-10-13T12:27:53.932Z,9.17
2022-10-13T12:30:26.762Z,6.70
2022-10-13T12:32:58.156Z,6.63
2022-10-13T12:35:30.455Z,6.83
2022-10-13T12:38:01.277Z,6.00
2022-10-13T12:40:29.430Z,6.63
2022-10-13T12:42:56.483Z,6.00
2022-10-13T12:45:31.495Z,5.80
2022-10-13T12:47:58.527Z,7.30
2022-10-13T12:50:29.602Z,11.57
2022-10-13T12:53:17.999Z,9.03
2022-10-13T12:55:50.689Z,7.63
2022-10-13T12:58:24.944Z,6.20
2022-10-13T13:01:06.104Z,11.13
2022-10-13T13:03:37.164Z,10.17
2022-10-13T13:06:13.523Z,9.60
2022-10-13T13:08:42.060Z,11.07
2022-10-13T13:11:23.951Z,8.93
2022-10-13T13:14:12.366Z,7.67
2022-10-13T13:16:39.351Z,7.17
2022-10-13T13:19:06.263Z,7.30
2022-10-13T13:21:34.099Z,6.73
2022-10-13T13:24:04.258Z,8.20
2022-10-13T13:26:38.303Z,7.50
2022-10-13T13:29:08.846Z,7.07
2022-10-13T13:31:35.723Z,7.37
2022-10-13T13:34:03.612Z,8.13
2022-10-13T13:36:31.057Z,6.93
2022-10-13T13:38:57.910Z,6.60
2022-10-13T13:41:27.888Z,7.97
2022-10-13T13:43:54.775Z,6.20
2022-10-13T13:46:24.731Z,7.20
2022-10-13T13:48:51.942Z,6.70
2022-10-13T13:51:19.283Z,5.97
2022-10-13T13:53:46.479Z,5.93
2022-10-13T13:56:14.918Z,6.03
2022-10-13T13:58:42.113Z,6.33
2022-10-13T14:01:11.015Z,6.80
2022-10-13T14:03:38.357Z,6.00
2022-10-13T14:06:07.694Z,5.27
2022-10-13T14:08:42.195Z,5.00
2022-10-13T14:11:10.204Z,4.90
2022-10-13T14:13:49.972Z,5.67
2022-10-13T14:16:26.270Z,5.47
2022-10-13T14:19:02.491Z,6.23
2022-10-13T14:21:29.690Z,6.00
2022-10-13T14:23:57.035Z,6.30
2022-10-13T14:26:24.958Z,6.00
2022-10-13T14:28:52.004Z,5.50
2022-10-13T14:31:19.036Z,5.97
2022-10-13T14:33:49.744Z,5.30
2022-10-13T14:36:20.377Z,5.93
2022-10-13T14:38:47.323Z,5.97
2022-10-13T14:41:17.031Z,6.07
2022-10-13T14:43:46.220Z,5.03
2022-10-13T14:46:13.586Z,6.20
2022-10-13T14:48:41.548Z,5.13
2022-10-13T14:51:10.926Z,6.00
2022-10-13T14:53:40.732Z,4.97
2022-10-13T14:56:30.074Z,4.60
2022-10-13T14:59:00.299Z,4.40
2022-10-13T15:01:34.097Z,4.60
2022-10-13T15:04:01.790Z,4.17
2022-10-13T15:06:31.777Z,3.83
2022-10-13T15:08:59.029Z,4.23
2022-10-13T15:11:26.894Z,4.57
2022-10-13T15:13:54.137Z,4.83
2022-10-13T15:16:33.618Z,4.27
2022-10-13T15:19:01.631Z,3.77
2022-10-13T15:21:29.602Z,3.70
2022-10-13T15:23:56.981Z,3.90
2022-10-13T15:26:24.536Z,4.07
2022-10-13T15:28:53.124Z,3.57
2022-10-13T15:31:22.608Z,3.40
2022-10-13T15:33:52.661Z,3.27
2022-10-13T15:36:21.847Z,3.50
2022-10-13T15:38:48.746Z,3.53
2022-10-13T15:41:16.213Z,3.53
2022-10-13T15:43:45.101Z,3.67
2022-10-13T15:46:21.104Z,3.50
2022-10-13T15:48:49.719Z,3.30
2022-10-13T15:51:19.607Z,3.80
2022-10-13T15:53:47.424Z,3.43
2022-10-13T15:56:14.828Z,2.77
2022-10-13T15:58:42.342Z,3.40
2022-10-13T16:01:10.604Z,3.90
2022-10-13T16:03:39.024Z,4.23
2022-10-13T16:06:10.375Z,4.37
2022-10-13T16:08:39.751Z,4.83
2022-10-13T16:11:16.262Z,4.30
2022-10-13T16:13:49.874Z,4.00
2022-10-13T16:16:17.584Z,4.17
2022-10-13T16:18:45.993Z,4.63
2022-10-13T16:21:22.474Z,4.23
2022-10-13T16:23:50.855Z,5.47
2022-10-13T16:26:18.529Z,5.17
2022-10-13T16:28:46.984Z,4.77
2022-10-13T16:31:16.356Z,4.87
2022-10-13T16:33:45.840Z,4.73
2022-10-13T16:36:18.711Z,4.97
2022-10-13T16:38:48.119Z,5.50
2022-10-13T16:41:17.263Z,5.53
2022-10-13T16:43:45.965Z,5.40
2022-10-13T16:46:16.412Z,5.10
2022-10-13T16:48:46.218Z,5.10
2022-10-13T16:51:20.121Z,6.20
2022-10-13T16:53:50.453Z,5.33
2022-10-13T16:56:22.126Z,5.10
2022-10-13T16:59:04.511Z,5.67
2022-10-13T17:01:34.881Z,5.73
2022-10-13T17:04:04.090Z,6.73
2022-10-13T17:06:31.211Z,5.77
2022-10-13T17:08:59.665Z,6.47
2022-10-13T17:11:29.994Z,5.60
2022-10-13T17:13:58.394Z,5.97
2022-10-13T17:16:31.392Z,6.37
2022-10-13T17:18:58.384Z,5.60
2022-10-13T17:21:32.972Z,5.40
2022-10-13T17:23:59.902Z,4.80
2022-10-13T17:26:27.872Z,5.20
2022-10-13T17:28:55.095Z,6.27
2022-10-13T17:31:23.788Z,7.60
2022-10-13T17:33:52.073Z,6.73
2022-10-13T17:36:27.385Z,5.90
2022-10-13T17:38:56.325Z,5.37
2022-10-13T17:41:24.362Z,4.70
2022-10-13T17:43:52.295Z,4.67
2022-10-13T17:46:41.067Z,4.43
2022-10-13T17:49:11.837Z,4.23
2022-10-13T17:51:40.620Z,3.30
2022-10-13T17:54:12.972Z,3.50
2022-10-13T17:56:42.598Z,3.10
2022-10-13T17:59:10.553Z,2.90
2022-10-13T18:01:37.978Z,3.23
2022-10-13T18:04:08.592Z,2.83
2022-10-13T18:06:40.469Z,2.30
2022-10-13T18:09:13.182Z,2.57
2022-10-13T18:11:45.658Z,2.60
2022-10-13T18:14:17.129Z,2.77
2022-10-13T18:16:44.896Z,2.33
2022-10-13T18:19:12.973Z,2.77
2022-10-13T18:21:40.082Z,2.90
2022-10-13T18:24:07.512Z,2.57
2022-10-13T18:26:37.368Z,2.83
2022-10-13T18:29:07.572Z,3.00
2022-10-13T18:31:36.840Z,5.87
2022-10-13T18:34:06.529Z,4.37
2022-10-13T18:36:39.918Z,5.83
2022-10-13T18:39:21.026Z,5.47
2022-10-13T18:41:48.945Z,5.80
2022-10-13T18:44:17.343Z,5.47
2022-10-13T18:46:45.118Z,5.40
2022-10-13T18:49:14.969Z,5.00
2022-10-13T18:51:43.765Z,5.40
2022-10-13T18:54:11.085Z,5.40
2022-10-13T18:56:38.719Z,5.27
2022-10-13T18:59:06.665Z,4.97
2022-10-13T19:01:35.775Z,6.07
2022-10-13T19:04:03.179Z,6.27
2022-10-13T19:06:32.670Z,6.57
2022-10-13T19:09:01.982Z,6.00
2022-10-13T19:11:31.029Z,5.57
2022-10-13T19:13:58.821Z,5.93
2022-10-13T19:16:29.256Z,6.03
2022-10-13T19:18:59.205Z,5.53
2022-10-13T19:21:26.849Z,5.77
2022-10-13T19:23:59.815Z,5.37
2022-10-13T19:26:29.921Z,4.87
2022-10-13T19:29:02.262Z,4.93
2022-10-13T19:31:32.166Z,4.77
2022-10-13T19:34:01.833Z,4.23
2022-10-13T19:36:39.490Z,4.43
2022-10-13T19:39:22.818Z,4.33
2022-10-13T19:41:53.069Z,4.40
2022-10-13T19:44:21.434Z,4.73
2022-10-13T19:46:50.262Z,3.83
2022-10-13T19:49:19.163Z,4.00
2022-10-13T19:51:47.889Z,4.20
2022-10-13T19:54:17.691Z,3.90
2022-10-13T19:56:47.590Z,4.57
2022-10-13T19:59:16.002Z,4.17
2022-10-13T20:01:43.297Z,3.93
2022-10-13T20:04:15.569Z,3.80
2022-10-13T20:06:44.097Z,4.33
2022-10-13T20:09:10.993Z,3.90
2022-10-13T20:11:37.968Z,4.40
2022-10-13T20:14:14.224Z,4.00
2022-10-13T20:16:41.903Z,4.43
2022-10-13T20:19:12.739Z,4.20
2022-10-13T20:21:42.902Z,3.83
2022-10-13T20:24:11.890Z,4.53
2022-10-13T20:26:40.863Z,4.77
2022-10-13T20:29:09.268Z,4.90
2022-10-13T20:31:44.277Z,9.53
2022-10-13T20:34:11.465Z,9.60
2022-10-13T20:36:39.530Z,7.80
2022-10-13T20:39:09.085Z,6.70
2022-10-13T20:41:37.268Z,6.60
2022-10-13T20:44:04.321Z,5.83
2022-10-13T20:46:33.348Z,5.20
2022-10-13T20:49:15.550Z,5.17
2022-10-13T20:51:43.180Z,5.27
2022-10-13T20:54:13.768Z,4.97
2022-10-13T20:56:40.776Z,5.77
2022-10-13T20:59:11.218Z,7.37
2022-10-13T21:01:38.506Z,6.77
2022-10-13T21:04:06.792Z,6.17
2022-10-13T21:06:34.289Z,5.43
2022-10-13T21:09:01.778Z,5.77
2022-10-13T21:11:28.800Z,6.27
2022-10-13T21:13:55.730Z,6.83
2022-10-13T21:16:28.094Z,6.53
2022-10-13T21:18:56.820Z,9.77
2022-10-13T21:21:26.936Z,9.70
2022-10-13T21:23:56.017Z,9.83
2022-10-13T21:26:25.822Z,9.33
2022-10-13T21:28:52.999Z,9.13
2022-10-13T21:31:21.709Z,9.10
2022-10-13T21:33:49.744Z,7.90
2022-10-13T21:36:21.483Z,7.37
2022-10-13T21:38:51.516Z,6.40
2022-10-13T21:41:19.590Z,6.43
2022-10-13T21:43:46.766Z,6.03
2022-10-13T21:46:26.645Z,6.50
2022-10-13T21:48:55.622Z,7.07
2022-10-13T21:51:26.605Z,7.60
2022-10-13T21:53:55.900Z,9.00
2022-10-13T21:56:23.719Z,8.37
2022-10-13T21:58:50.816Z,8.07
2022-10-13T22:01:18.976Z,7.23
2022-10-13T22:03:49.544Z,6.73
2022-10-13T22:06:20.078Z,7.20
2022-10-13T22:08:50.049Z,9.33
2022-10-13T22:11:26.006Z,6.70
2022-10-13T22:13:53.035Z,6.67
2022-10-13T22:16:24.356Z,8.77
2022-10-13T22:18:53.053Z,7.77
2022-10-13T22:21:25.202Z,7.43
2022-10-13T22:23:55.759Z,7.57
2022-10-13T22:26:23.816Z,8.00
2022-10-13T22:28:51.784Z,8.37
2022-10-13T22:31:19.110Z,7.10
2022-10-13T22:33:46.655Z,7.27
2022-10-13T22:36:17.130Z,8.00
2022-10-13T22:38:45.910Z,7.77
2022-10-13T22:41:14.742Z,6.47
2022-10-13T22:43:46.732Z,7.93
2022-10-13T22:46:19.166Z,8.27
2022-10-13T22:48:46.158Z,7.87
2022-10-13T22:51:18.130Z,7.50
2022-10-13T22:53:45.275Z,7.30
2022-10-13T22:56:16.577Z,6.70
2022-10-13T22:58:58.283Z,6.10
2022-10-13T23:01:26.227Z,5.70
2022-10-13T23:04:18.466Z,6.40
2022-10-13T23:06:45.375Z,6.63
2022-10-13T23:09:13.954Z,9.40
2022-10-13T23:11:59.818Z,9.10
2022-10-13T23:14:33.567Z,8.60
2022-10-13T23:17:25.454Z,8.07
2022-10-13T23:19:54.159Z,9.10
2022-10-13T23:22:26.569Z,8.50
2022-10-13T23:24:57.854Z,7.73
2022-10-13T23:27:24.794Z,8.83
2022-10-13T23:29:51.883Z,8.23
2022-10-13T23:32:22.771Z,8.57
2022-10-13T23:34:53.634Z,8.13
2022-10-13T23:37:22.600Z,10.60
2022-10-13T23:39:49.746Z,10.20
2022-10-13T23:42:22.950Z,10.10
2022-10-13T23:44:49.937Z,9.43
2022-10-13T23:47:16.884Z,9.83
2022-10-13T23:49:43.908Z,10.00
2022-10-13T23:52:11.250Z,8.80
2022-10-13T23:54:39.149Z,10.30
2022-10-13T23:57:06.164Z,10.07
2022-10-13T23:59:38.945Z,9.63
